KSSI/SSI METAR and TAF weather

Enter ICAO airport designator
Station Type Date Time Source
KSSI METAR 2020/09/19 02:53 UTC NOAA

KSSI 190253Z AUTO 01011G18KT 10SM FEW010 BKN025 OVC050 23/22 A2995 RMK AO2 SLP143 T02330222 51005


Station Type Date Time Source
KSSI Decoded METAR 2020/09/19 02:53 UTC NOAA

BRUNSWICK MC KINNON AIRPORT , GA, United States (KSSI) 31-09N 081-23W 6M
Sep 18, 2020 - 10:53 PM EDT / 2020.09.19 0253 UTC
Wind: from the N (010 degrees) at 13 MPH (11 KT) gusting to 21 MPH (18 KT):0
Visibility: 10 mile(s):0
Sky conditions: overcast
Temperature: 73.9 F (23.3 C)
Dew Point: 72.0 F (22.2 C)
Relative Humidity: 93%
Pressure (altimeter): 29.95 in. Hg (1014 hPa)
Pressure tendency: 0.01 inches (0.5 hPa) higher than three hours ago
ob: KSSI 190253Z AUTO 01011G18KT 10SM FEW010 BKN025 OVC050 23/22 A2995 RMK AO2 SLP143 T02330222 51005
cycle: 3

Station Type Date Time Source
KSSI TAF 2020/09/18 22:54 UTC NOAA

TAF
AMD KSSI 182153Z 1822/1918 33010KT 6SM -SHRA BR OVC020
TEMPO 1822/1824 2SM -SHRA BR OVC010
FM190000 36007KT 6SM BR VCSH OVC025
FM190500 02010KT P6SM VCSH OVC015
FM191300 03015G25KT P6SM -SHRA OVC015

Example: see airport list